Time;durP1;ratioP1;P1;durP2;ratioP2;P2;SDS_P1;SDS_P2;PMS_P1;PMS_P2;Temp;Humidity;BMP_temperature;BMP_pressure;BME280_temperature;BME280_humidity;BME280_pressure;Samples;Min_cycle;Max_cycle;Signal;HPM_P1;HPM_P2
2021/01/10 00:02:53;;;;;;;13.07;10.77;;;;;;;0.74;56.56;95544.28;6989076;28;20209;-73
2021/01/10 00:06:13;;;;;;;16.57;10.93;;;;;;;0.70;56.27;95548.81;6987032;28;20289;-73
2021/01/10 00:09:34;;;;;;;16.60;10.80;;;;;;;0.68;56.29;95547.16;7004532;28;20216;-72
2021/01/10 00:13:02;;;;;;;14.67;12.00;;;;;;;0.66;56.53;95535.91;6991492;28;20217;-73
2021/01/10 00:16:27;;;;;;;14.10;11.73;;;;;;;0.67;56.50;95540.22;6995752;28;20222;-73
2021/01/10 00:19:52;;;;;;;14.50;11.90;;;;;;;0.68;56.26;95549.78;6981005;28;20217;-73
2021/01/10 00:23:13;;;;;;;12.40;10.40;;;;;;;0.67;56.41;95542.84;6991889;28;20256;-72
2021/01/10 00:26:37;;;;;;;12.73;10.53;;;;;;;0.67;56.31;95540.22;6982697;28;20241;-72
2021/01/10 00:29:58;;;;;;;13.20;9.73;;;;;;;0.71;56.25;95544.41;6999507;28;20215;-74
2021/01/10 00:33:18;;;;;;;13.03;10.90;;;;;;;0.68;56.17;95537.56;7009316;28;20222;-73
2021/01/10 00:36:41;;;;;;;12.53;10.17;;;;;;;0.67;55.75;95551.53;6994559;28;20213;-73
2021/01/10 00:40:05;;;;;;;12.80;11.03;;;;;;;0.70;56.01;95555.78;6991358;28;20748;-72
2021/01/10 00:43:28;;;;;;;13.10;11.00;;;;;;;0.75;56.00;95554.66;6986504;28;20801;-74
2021/01/10 00:46:54;;;;;;;12.90;10.47;;;;;;;0.75;55.55;95552.06;6974945;28;20235;-72
2021/01/10 00:50:16;;;;;;;11.57;9.73;;;;;;;0.78;55.48;95548.44;7008186;28;20755;-73
2021/01/10 00:53:39;;;;;;;12.23;10.63;;;;;;;0.83;55.95;95552.53;6993257;28;20245;-73
2021/01/10 00:57:00;;;;;;;11.87;9.87;;;;;;;0.92;55.33;95539.94;6993321;28;20598;-73
2021/01/10 01:00:21;;;;;;;12.37;10.33;;;;;;;0.91;55.45;95551.31;6998466;28;20232;-72
2021/01/10 01:03:41;;;;;;;21.20;14.50;;;;;;;0.98;55.41;95544.91;6967341;28;20222;-73
2021/01/10 01:07:02;;;;;;;12.30;10.37;;;;;;;1.00;55.04;95538.69;7001916;28;20230;-74
2021/01/10 01:10:22;;;;;;;12.87;10.53;;;;;;;0.96;54.98;95546.72;7004208;28;20572;-73
2021/01/10 01:13:47;;;;;;;12.33;10.30;;;;;;;0.99;55.36;95547.44;6998013;28;20236;-73
2021/01/10 01:17:10;;;;;;;12.60;9.97;;;;;;;1.05;55.58;95541.94;6981899;28;21925;-73
2021/01/10 01:20:30;;;;;;;11.00;9.33;;;;;;;1.04;55.00;95547.22;6964111;28;20222;-74
2021/01/10 01:23:51;;;;;;;15.37;11.67;;;;;;;1.04;55.11;95542.00;6980471;28;20271;-73
2021/01/10 01:27:14;;;;;;;11.80;9.73;;;;;;;1.05;54.72;95544.56;6982168;28;20301;-73
2021/01/10 01:30:37;;;;;;;14.67;11.57;;;;;;;0.99;54.68;95542.22;7021424;28;20215;-74
2021/01/10 01:33:57;;;;;;;12.43;9.83;;;;;;;0.96;54.85;95533.66;7001182;28;20210;-74
2021/01/10 01:37:18;;;;;;;11.73;9.70;;;;;;;0.82;55.09;95555.22;6993181;28;20237;-73
2021/01/10 01:40:38;;;;;;;14.93;10.47;;;;;;;0.77;55.26;95539.75;6998681;28;20206;-73
2021/01/10 01:43:59;;;;;;;12.00;9.53;;;;;;;0.71;55.15;95541.78;6973589;28;20816;-74
2021/01/10 01:47:21;;;;;;;12.70;9.30;;;;;;;0.68;55.44;95552.38;6994022;28;20318;-74
2021/01/10 01:50:44;;;;;;;14.03;10.07;;;;;;;0.66;55.63;95567.28;7001480;28;20659;-75
2021/01/10 01:54:05;;;;;;;10.73;9.20;;;;;;;0.66;55.99;95565.50;6993696;28;20234;-73
2021/01/10 01:57:25;;;;;;;10.47;9.03;;;;;;;0.72;55.53;95564.41;7005059;27;20246;-73
2021/01/10 02:00:46;;;;;;;13.53;10.53;;;;;;;0.74;55.84;95565.19;7010466;28;20274;-73
2021/01/10 02:04:42;;;;;;;12.70;10.23;;;;;;;0.79;56.03;95573.66;7008341;28;20225;-74
2021/01/10 02:08:07;;;;;;;10.03;8.83;;;;;;;0.76;55.35;95579.00;6995976;28;20229;-73
2021/01/10 02:11:29;;;;;;;12.13;9.80;;;;;;;0.69;55.63;95564.53;6991482;28;20221;-74
2021/01/10 02:15:16;;;;;;;13.23;8.53;;;;;;;0.68;55.47;95578.53;6997933;28;20221;-73
2021/01/10 02:18:38;;;;;;;11.20;8.50;;;;;;;0.62;55.54;95582.25;6990503;28;20240;-73
2021/01/10 02:22:05;;;;;;;10.23;8.43;;;;;;;0.52;55.55;95572.28;6999977;28;20245;-74
2021/01/10 02:25:26;;;;;;;10.33;8.40;;;;;;;0.46;55.36;95586.47;6962504;28;20238;-73
2021/01/10 02:28:46;;;;;;;9.47;8.03;;;;;;;0.41;55.52;95581.44;7006306;28;20644;-73
2021/01/10 02:32:07;;;;;;;11.00;9.40;;;;;;;0.36;55.90;95586.03;6985349;28;20693;-73
2021/01/10 02:35:31;;;;;;;10.13;9.10;;;;;;;0.33;56.17;95580.94;6999645;28;20296;-73
2021/01/10 02:39:11;;;;;;;10.27;8.40;;;;;;;0.31;56.17;95568.84;6988678;28;20274;-72
2021/01/10 02:42:51;;;;;;;11.17;8.80;;;;;;;0.31;56.26;95558.41;6988376;28;20228;-73
2021/01/10 02:46:15;;;;;;;9.50;8.00;;;;;;;0.36;56.30;95565.13;7000130;28;20226;-72
2021/01/10 02:49:35;;;;;;;9.70;8.70;;;;;;;0.38;56.35;95565.06;7007620;28;20978;-73
2021/01/10 02:52:55;;;;;;;9.00;7.83;;;;;;;0.42;56.24;95562.25;6995896;28;20696;-73
2021/01/10 02:56:16;;;;;;;8.80;7.70;;;;;;;0.45;56.08;95592.63;6992214;28;20297;-73
2021/01/10 02:59:39;;;;;;;9.93;8.27;;;;;;;0.33;55.65;95554.81;6993388;28;20219;-73
2021/01/10 03:03:00;;;;;;;9.77;8.67;;;;;;;0.27;55.92;95560.31;6994325;28;20232;-74
2021/01/10 03:06:21;;;;;;;11.30;8.20;;;;;;;0.25;56.10;95551.69;6978603;28;20214;-73
2021/01/10 03:09:42;;;;;;;8.93;7.73;;;;;;;0.32;56.27;95544.44;6996344;28;20227;-73
2021/01/10 03:13:02;;;;;;;10.33;8.87;;;;;;;0.38;56.05;95533.72;7002539;28;20229;-73
2021/01/10 03:16:23;;;;;;;10.60;9.50;;;;;;;0.37;55.85;95539.84;7001512;28;20308;-73
2021/01/10 03:19:46;;;;;;;10.57;9.07;;;;;;;0.43;55.98;95543.06;6994752;28;20270;-73
2021/01/10 03:23:08;;;;;;;10.23;8.70;;;;;;;0.40;55.71;95552.81;6998244;28;20226;-73
2021/01/10 03:26:32;;;;;;;9.50;8.50;;;;;;;0.38;55.78;95539.78;7010145;28;20252;-74
2021/01/10 03:29:53;;;;;;;10.70;8.93;;;;;;;0.47;55.78;95542.91;6983456;28;20242;-73
2021/01/10 03:33:16;;;;;;;9.87;8.27;;;;;;;0.42;55.42;95551.78;6994622;28;20246;-73
2021/01/10 03:36:36;;;;;;;9.63;8.60;;;;;;;0.32;55.40;95549.66;7003864;28;20748;-73
2021/01/10 03:39:56;;;;;;;11.13;8.57;;;;;;;0.28;55.23;95553.31;6989601;28;20238;-73
2021/01/10 03:43:17;;;;;;;9.17;8.20;;;;;;;0.27;55.46;95557.69;7016446;28;20219;-73
2021/01/10 03:46:37;;;;;;;12.30;10.30;;;;;;;0.33;55.38;95551.34;7001636;28;20246;-73
2021/01/10 03:50:02;;;;;;;13.40;9.90;;;;;;;0.41;55.28;95567.53;6988184;28;20226;-73
2021/01/10 03:53:26;;;;;;;10.23;9.23;;;;;;;0.37;54.82;95545.94;6999265;28;20226;-74
2021/01/10 03:56:46;;;;;;;10.23;8.97;;;;;;;0.28;54.78;95562.00;6986404;28;20228;-73
2021/01/10 04:00:10;;;;;;;9.77;8.67;;;;;;;0.20;55.33;95542.38;6974678;28;20617;-73
2021/01/10 04:03:31;;;;;;;10.63;9.13;;;;;;;0.16;55.54;95543.41;6998027;28;20215;-74
2021/01/10 04:06:51;;;;;;;10.43;9.33;;;;;;;0.17;55.73;95545.09;6988690;28;20224;-73
2021/01/10 04:10:14;;;;;;;12.00;9.83;;;;;;;0.22;55.61;95549.22;6995752;28;20242;-73
2021/01/10 04:13:34;;;;;;;11.73;10.23;;;;;;;0.30;55.69;95538.44;6975596;27;20309;-73
2021/01/10 04:16:57;;;;;;;10.27;8.67;;;;;;;0.30;55.67;95523.59;6986910;28;20215;-73
2021/01/10 04:20:19;;;;;;;11.73;9.40;;;;;;;0.37;55.56;95535.47;6992214;28;20222;-73
2021/01/10 04:23:40;;;;;;;11.13;9.53;;;;;;;0.42;55.47;95523.06;6998382;28;20213;-74
2021/01/10 04:27:00;;;;;;;10.27;9.10;;;;;;;0.45;55.38;95537.75;7000106;28;20217;-73
2021/01/10 04:30:21;;;;;;;10.27;9.17;;;;;;;0.47;55.15;95522.84;6986141;28;20241;-73
2021/01/10 04:33:43;;;;;;;10.87;9.77;;;;;;;0.51;55.43;95511.34;7021168;28;20585;-73
2021/01/10 04:37:04;;;;;;;10.63;9.00;;;;;;;0.57;55.36;95529.34;7003094;28;20598;-73
2021/01/10 04:40:27;;;;;;;8.93;8.00;;;;;;;0.50;54.65;95521.88;6998062;28;20735;-74
2021/01/10 04:43:47;;;;;;;10.10;8.80;;;;;;;0.41;54.94;95520.50;7001413;28;20215;-73
2021/01/10 04:47:08;;;;;;;9.70;8.70;;;;;;;0.46;55.30;95530.75;7004544;28;20221;-74
2021/01/10 04:50:31;;;;;;;10.47;9.03;;;;;;;0.42;54.99;95549.19;7005527;28;20706;-73
2021/01/10 04:53:58;;;;;;;11.27;10.07;;;;;;;0.34;55.10;95525.19;7001823;28;20601;-74
2021/01/10 04:57:25;;;;;;;10.87;9.33;;;;;;;0.34;55.24;95538.25;7003327;28;20928;-73
2021/01/10 05:00:46;;;;;;;11.13;9.30;;;;;;;0.30;54.96;95530.63;6992567;28;20221;-73
2021/01/10 05:04:06;;;;;;;11.63;9.93;;;;;;;0.21;54.99;95536.22;6989537;28;20223;-73
2021/01/10 05:07:36;;;;;;;11.70;9.30;;;;;;;0.16;55.16;95535.56;6995264;28;20232;-73
2021/01/10 05:10:56;;;;;;;10.67;9.13;;;;;;;0.11;55.45;95522.72;6983637;28;20592;-73
2021/01/10 05:14:22;;;;;;;12.27;10.00;;;;;;;0.09;55.64;95531.56;6991821;28;20757;-73
2021/01/10 05:17:52;;;;;;;10.23;9.13;;;;;;;0.12;55.33;95521.81;6983055;28;20240;-73
2021/01/10 05:21:15;;;;;;;9.77;8.77;;;;;;;0.12;55.75;95523.56;7005840;28;20278;-73
2021/01/10 05:24:38;;;;;;;11.70;10.10;;;;;;;0.11;55.72;95529.69;6977872;28;20197;-73
2021/01/10 05:27:58;;;;;;;10.20;9.07;;;;;;;0.09;55.75;95526.31;7022997;27;20314;-73
2021/01/10 05:31:44;;;;;;;10.87;9.70;;;;;;;0.10;55.67;95534.06;7015014;28;20213;-73
2021/01/10 05:35:10;;;;;;;10.70;9.27;;;;;;;0.11;55.47;95530.56;7008114;28;20220;-75
2021/01/10 05:38:32;;;;;;;11.63;10.23;;;;;;;0.11;55.52;95525.34;7013154;28;20210;-76
2021/01/10 05:42:01;;;;;;;11.50;10.07;;;;;;;0.14;55.69;95533.03;7027487;28;20219;-75
2021/01/10 05:45:37;;;;;;;11.27;9.90;;;;;;;0.20;55.46;95537.97;7011910;28;20221;-75
2021/01/10 05:49:02;;;;;;;10.83;9.30;;;;;;;0.10;55.40;95528.84;7009985;27;20262;-75
2021/01/10 05:52:25;;;;;;;11.43;9.97;;;;;;;0.07;55.58;95535.97;7022532;28;20218;-74
2021/01/10 05:56:00;;;;;;;11.67;9.83;;;;;;;0.08;55.41;95527.25;7010525;28;20273;-74
2021/01/10 05:59:22;;;;;;;10.87;9.37;;;;;;;0.07;55.75;95536.81;7017101;28;20210;-74
2021/01/10 06:02:44;;;;;;;11.20;9.30;;;;;;;0.12;55.61;95536.63;7019745;28;20215;-74
2021/01/10 06:06:05;;;;;;;11.60;9.93;;;;;;;0.15;55.20;95528.69;7025258;27;20312;-74
2021/01/10 06:09:26;;;;;;;10.37;9.07;;;;;;;0.15;55.29;95536.50;7014183;28;20324;-75
2021/01/10 06:13:00;;;;;;;11.30;9.67;;;;;;;0.11;55.43;95534.91;7005879;28;20266;-75
2021/01/10 06:16:23;;;;;;;10.83;9.50;;;;;;;0.15;55.56;95526.06;6999042;28;20231;-75
2021/01/10 06:19:50;;;;;;;11.10;9.47;;;;;;;0.13;55.23;95523.50;7012893;28;20201;-74
2021/01/10 06:23:10;;;;;;;10.57;9.23;;;;;;;0.08;55.11;95530.69;7019691;28;20213;-74
2021/01/10 06:26:33;;;;;;;11.20;9.23;;;;;;;-0.01;55.33;95531.97;7023443;28;20214;-74
2021/01/10 06:29:55;;;;;;;11.63;9.60;;;;;;;-0.07;55.17;95526.13;7023666;28;20206;-75
2021/01/10 06:33:16;;;;;;;10.83;9.73;;;;;;;-0.09;55.43;95530.56;7016622;28;20217;-75
2021/01/10 06:36:39;;;;;;;12.10;9.40;;;;;;;-0.04;55.72;95523.38;7011861;28;20792;-75
2021/01/10 06:40:01;;;;;;;11.33;9.67;;;;;;;-0.01;55.48;95529.34;7028512;28;20651;-74
2021/01/10 06:43:24;;;;;;;10.27;9.23;;;;;;;0.00;55.53;95541.47;6998776;28;20221;-73
2021/01/10 06:46:54;;;;;;;12.17;9.63;;;;;;;0.05;55.54;95525.59;7020631;28;20577;-73
2021/01/10 06:50:17;;;;;;;10.83;9.73;;;;;;;0.11;55.43;95530.56;7004865;28;20232;-73
2021/01/10 06:53:40;;;;;;;11.07;9.27;;;;;;;0.15;55.39;95531.28;6992871;28;20247;-73
2021/01/10 06:57:01;;;;;;;11.17;9.97;;;;;;;0.13;55.50;95528.72;6981414;28;20229;-73
2021/01/10 07:00:21;;;;;;;11.77;10.50;;;;;;;0.13;55.59;95528.72;6984424;28;20626;-74
2021/01/10 07:03:57;;;;;;;15.40;12.70;;;;;;;0.17;55.77;95529.44;6995428;28;20220;-73
2021/01/10 07:07:43;;;;;;;13.53;11.53;;;;;;;0.22;55.62;95527.47;6984708;28;20631;-73
2021/01/10 07:11:22;;;;;;;10.13;8.73;;;;;;;0.17;55.21;95552.94;7005048;28;20221;-73
2021/01/10 07:14:43;;;;;;;9.90;8.27;;;;;;;0.07;55.21;95538.59;7013525;28;20232;-73
2021/01/10 07:18:07;;;;;;;10.90;9.27;;;;;;;0.03;55.79;95537.88;6978243;28;20644;-73
2021/01/10 07:21:34;;;;;;;11.73;9.60;;;;;;;0.05;55.75;95536.03;6990119;28;20648;-73
2021/01/10 07:24:54;;;;;;;10.67;9.57;;;;;;;0.06;55.64;95529.91;6996772;28;20687;-73
2021/01/10 07:28:39;;;;;;;10.77;9.17;;;;;;;-0.05;55.73;95530.38;7017922;28;20750;-73
2021/01/10 07:32:18;;;;;;;12.30;10.23;;;;;;;-0.06;55.73;95533.91;7002967;28;20226;-69
2021/01/10 07:35:58;;;;;;;13.00;10.30;;;;;;;0.02;55.83;95522.28;6983497;28;20219;-73
2021/01/10 07:39:20;;;;;;;13.27;11.03;;;;;;;0.07;56.04;95534.22;6996245;28;20219;-74
2021/01/10 07:42:40;;;;;;;13.00;10.20;;;;;;;0.08;55.56;95537.69;7010415;28;20210;-73
2021/01/10 07:46:01;;;;;;;18.80;15.47;;;;;;;0.07;55.66;95531.59;7005227;28;20317;-73
2021/01/10 07:49:29;;;;;;;12.77;10.87;;;;;;;0.07;55.58;95542.06;6994233;28;20234;-73
2021/01/10 07:52:58;;;;;;;11.77;10.57;;;;;;;0.06;55.66;95553.41;6996958;28;20773;-73
2021/01/10 07:56:18;;;;;;;10.87;9.73;;;;;;;0.06;55.69;95531.66;7002493;28;20213;-73
2021/01/10 07:59:42;;;;;;;11.53;10.33;;;;;;;0.06;55.82;95535.13;7013235;28;20213;-72
2021/01/10 08:03:06;;;;;;;12.37;10.07;;;;;;;0.11;55.60;95543.59;6995505;28;20243;-73
2021/01/10 08:06:26;;;;;;;11.33;10.13;;;;;;;0.15;55.62;95536.50;6971008;28;20302;-73
2021/01/10 08:09:55;;;;;;;11.17;9.97;;;;;;;0.14;55.38;95540.88;6996036;28;20217;-73
2021/01/10 08:13:48;;;;;;;12.40;10.13;;;;;;;0.20;55.58;95547.59;7005883;28;20254;-74
2021/01/10 08:17:18;;;;;;;12.43;11.03;;;;;;;0.22;55.39;95549.22;7002979;28;20241;-74
2021/01/10 08:20:41;;;;;;;13.30;11.40;;;;;;;0.28;55.25;95553.31;6983816;28;20241;-75
2021/01/10 08:24:03;;;;;;;11.57;9.83;;;;;;;0.32;54.71;95539.22;7005213;28;20217;-74
2021/01/10 08:27:24;;;;;;;13.33;10.60;;;;;;;0.21;54.97;95559.72;7000206;28;21284;-73
2021/01/10 08:30:47;;;;;;;15.53;12.17;;;;;;;0.22;55.06;95538.78;6995656;28;20217;-73
2021/01/10 08:34:16;;;;;;;15.87;12.37;;;;;;;0.22;55.01;95556.19;6986682;28;20231;-73
2021/01/10 08:37:37;;;;;;;10.67;9.57;;;;;;;0.25;54.83;95566.53;6983759;28;20225;-74
2021/01/10 08:40:57;;;;;;;13.17;10.60;;;;;;;0.32;54.86;95583.63;6996486;28;20689;-72
2021/01/10 08:44:20;;;;;;;13.63;10.57;;;;;;;0.35;54.80;95563.41;6991901;28;20230;-72
2021/01/10 08:47:42;;;;;;;10.50;9.33;;;;;;;0.37;54.51;95550.31;7008212;28;20211;-72
2021/01/10 08:51:02;;;;;;;13.13;11.07;;;;;;;0.37;54.55;95553.75;6996250;28;20309;-74
2021/01/10 08:54:23;;;;;;;11.10;9.40;;;;;;;0.39;54.09;95559.78;7021451;28;20579;-73
2021/01/10 08:57:44;;;;;;;9.10;8.20;;;;;;;0.45;54.16;95549.97;7012548;28;20209;-72
2021/01/10 09:01:04;;;;;;;11.80;9.97;;;;;;;0.54;54.22;95562.63;7017128;28;20320;-73
2021/01/10 09:04:24;;;;;;;10.20;9.20;;;;;;;0.62;53.74;95558.75;7013898;28;20336;-73
2021/01/10 09:07:48;;;;;;;11.67;9.80;;;;;;;0.65;53.73;95557.78;7003067;28;20221;-73
2021/01/10 09:11:14;;;;;;;9.53;8.27;;;;;;;0.67;53.36;95548.94;7009925;28;20256;-73
2021/01/10 09:14:52;;;;;;;10.13;9.13;;;;;;;0.81;53.39;95564.81;7005988;28;20259;-73
2021/01/10 09:18:19;;;;;;;9.93;8.03;;;;;;;0.99;53.32;95570.13;6996153;28;20217;-73
2021/01/10 09:21:46;;;;;;;12.57;8.73;;;;;;;1.14;52.99;95579.88;7005400;28;20225;-73
2021/01/10 09:25:19;;;;;;;9.93;8.60;;;;;;;1.19;52.27;95570.91;7001863;28;20730;-67
2021/01/10 09:28:40;;;;;;;9.90;7.90;;;;;;;1.27;52.18;95560.91;7003429;28;20275;-72
2021/01/10 09:32:00;;;;;;;10.73;9.00;;;;;;;1.37;52.04;95571.78;7011258;28;20226;-73
2021/01/10 09:35:23;;;;;;;10.80;8.97;;;;;;;1.46;52.18;95575.75;7004609;28;20342;-74
2021/01/10 09:38:56;;;;;;;9.33;8.43;;;;;;;1.46;51.38;95578.34;6990306;28;20286;-71
2021/01/10 09:42:20;;;;;;;11.63;9.10;;;;;;;1.49;51.08;95562.50;7019075;27;20221;-72
2021/01/10 09:45:41;;;;;;;9.10;7.93;;;;;;;1.50;51.12;95575.50;6968268;28;20209;-69
2021/01/10 09:49:02;;;;;;;14.07;11.33;;;;;;;1.59;51.62;95568.97;7018490;27;20221;-69
2021/01/10 09:52:23;;;;;;;10.90;9.37;;;;;;;1.76;50.99;95568.97;6985151;28;20313;-70
2021/01/10 09:55:46;;;;;;;9.53;8.50;;;;;;;1.88;50.78;95571.00;7004093;28;20219;-70
2021/01/10 09:59:41;;;;;;;9.23;8.13;;;;;;;1.79;50.55;95579.31;7001658;28;20306;-72
2021/01/10 10:03:08;;;;;;;9.63;8.20;;;;;;;1.81;50.74;95576.63;7004811;28;20265;-71
2021/01/10 10:06:29;;;;;;;9.50;8.40;;;;;;;1.86;50.96;95577.25;7013109;28;20225;-70
2021/01/10 10:09:53;;;;;;;9.33;8.10;;;;;;;1.86;50.19;95580.69;6992341;28;20224;-70
2021/01/10 10:13:13;;;;;;;9.37;8.30;;;;;;;1.99;50.09;95568.69;6999712;28;20623;-70
2021/01/10 10:16:36;;;;;;;9.57;8.07;;;;;;;2.38;50.33;95564.97;6989997;28;20691;-70
2021/01/10 10:19:57;;;;;;;9.93;8.23;;;;;;;3.22;49.31;95563.94;7008421;28;20299;-69
2021/01/10 10:23:21;;;;;;;9.33;8.33;;;;;;;4.19;47.16;95553.91;6986806;28;20613;-69
2021/01/10 10:26:42;;;;;;;10.50;8.90;;;;;;;4.23;46.84;95565.09;7002253;28;20219;-69
2021/01/10 10:30:03;;;;;;;8.33;7.47;;;;;;;4.11;45.86;95561.41;7000516;28;20224;-72
2021/01/10 10:33:24;;;;;;;9.20;8.03;;;;;;;4.06;45.78;95552.09;6988658;28;20717;-70
2021/01/10 10:36:44;;;;;;;9.87;8.33;;;;;;;4.68;45.29;95543.91;6994157;28;20335;-70
2021/01/10 10:40:05;;;;;;;9.60;7.80;;;;;;;6.54;43.73;95537.94;7002163;28;20218;-70
2021/01/10 10:43:28;;;;;;;9.03;7.67;;;;;;;8.14;40.72;95530.78;7007754;28;20218;-73
2021/01/10 10:46:51;;;;;;;8.80;7.83;;;;;;;9.76;39.91;95537.50;7025460;28;20221;-72
2021/01/10 10:50:11;;;;;;;8.27;7.40;;;;;;;11.46;36.66;95521.25;7006116;28;20209;-73
2021/01/10 10:53:34;;;;;;;8.40;7.60;;;;;;;12.00;33.89;95510.19;7003764;28;20242;-72
2021/01/10 10:56:54;;;;;;;10.13;9.13;;;;;;;11.27;33.30;95515.84;6998998;28;20709;-72
2021/01/10 11:00:18;;;;;;;8.10;7.30;;;;;;;11.31;33.09;95519.94;7020797;28;20213;-72
2021/01/10 11:03:41;;;;;;;9.20;7.60;;;;;;;12.37;31.28;95522.84;7016706;28;20213;-71
2021/01/10 11:07:01;;;;;;;9.37;8.47;;;;;;;11.81;31.21;95506.66;6998968;28;23099;-71
2021/01/10 11:10:25;;;;;;;8.37;7.57;;;;;;;11.79;31.28;95504.13;7036294;27;20229;-72
2021/01/10 11:13:50;;;;;;;8.23;7.50;;;;;;;12.69;30.96;95495.88;7026650;27;20269;-74
2021/01/10 11:17:11;;;;;;;7.37;6.77;;;;;;;12.63;29.47;95507.94;7020880;28;20221;-71
2021/01/10 11:20:32;;;;;;;8.23;7.53;;;;;;;12.11;30.17;95487.94;6998511;28;20221;-72
2021/01/10 11:23:53;;;;;;;7.80;7.10;;;;;;;10.73;30.97;95487.75;7012707;28;20235;-71
2021/01/10 11:27:13;;;;;;;8.33;7.57;;;;;;;9.47;31.92;95495.66;7017899;28;20300;-73
2021/01/10 11:30:34;;;;;;;8.20;7.50;;;;;;;8.56;33.00;95494.09;7027488;27;20217;-72
2021/01/10 11:33:54;;;;;;;8.10;7.30;;;;;;;7.77;34.41;95510.66;7019052;28;20224;-72
2021/01/10 11:37:17;;;;;;;7.57;6.87;;;;;;;6.85;35.92;95500.56;7001297;28;20265;-72
2021/01/10 11:40:37;;;;;;;8.77;7.93;;;;;;;5.89;37.08;95487.03;7006869;28;20556;-72
2021/01/10 11:43:58;;;;;;;8.97;8.07;;;;;;;5.31;38.38;95487.34;7017117;28;20686;-71
2021/01/10 11:47:21;;;;;;;7.90;7.20;;;;;;;4.94;39.69;95494.09;7033645;27;20224;-72
2021/01/10 11:50:42;;;;;;;9.17;8.17;;;;;;;4.59;40.96;95475.25;6994955;28;20313;-72
2021/01/10 11:54:03;;;;;;;9.50;7.83;;;;;;;4.42;41.40;95485.97;7041914;27;20576;-72
2021/01/10 11:57:26;;;;;;;8.80;7.90;;;;;;;4.20;42.14;95489.91;6992591;28;20218;-72
2021/01/10 12:00:51;;;;;;;9.73;8.73;;;;;;;4.15;42.58;95477.97;6999662;28;20220;-72
2021/01/10 12:04:11;;;;;;;8.73;7.83;;;;;;;3.99;43.24;95457.03;6995628;28;20313;-73
2021/01/10 12:07:32;;;;;;;10.37;8.87;;;;;;;3.78;43.56;95474.03;6998677;27;20226;-72
2021/01/10 12:10:54;;;;;;;10.50;8.77;;;;;;;3.62;44.44;95474.09;7024440;28;20244;-72
2021/01/10 12:14:15;;;;;;;10.03;8.97;;;;;;;3.65;45.64;95467.84;7011175;27;20225;-72
2021/01/10 12:17:35;;;;;;;10.87;9.40;;;;;;;3.64;45.98;95469.59;6975124;28;20220;-73
2021/01/10 12:20:55;;;;;;;9.63;8.63;;;;;;;3.63;45.25;95464.44;6981723;28;20221;-72
2021/01/10 12:24:16;;;;;;;11.03;9.80;;;;;;;3.47;45.38;95464.47;7003562;28;20214;-72
2021/01/10 12:27:36;;;;;;;10.97;9.67;;;;;;;3.28;46.07;95458.59;7012864;28;20684;-72
2021/01/10 12:30:57;;;;;;;10.07;8.50;;;;;;;3.26;46.72;95457.84;6990304;28;20247;-72
2021/01/10 12:34:20;;;;;;;11.40;9.07;;;;;;;3.25;47.46;95459.63;6993659;28;20234;-72
2021/01/10 12:37:40;;;;;;;10.10;8.80;;;;;;;3.30;47.15;95454.97;6995495;28;20225;-72
2021/01/10 12:41:05;;;;;;;12.07;9.93;;;;;;;3.22;47.09;95459.78;7016628;27;20236;-71
2021/01/10 12:44:26;;;;;;;9.77;8.63;;;;;;;3.24;47.26;95470.22;6991955;28;20243;-70
2021/01/10 12:47:48;;;;;;;9.73;8.73;;;;;;;3.18;47.57;95458.28;7018698;28;20222;-72
2021/01/10 12:51:09;;;;;;;10.13;9.00;;;;;;;3.20;47.63;95460.81;7017857;28;20226;-73
2021/01/10 12:54:29;;;;;;;9.57;8.50;;;;;;;3.22;48.06;95457.16;6999916;28;20225;-67
2021/01/10 12:57:50;;;;;;;10.07;8.97;;;;;;;3.23;47.57;95465.88;7026163;28;20311;-72
2021/01/10 13:01:14;;;;;;;9.70;8.70;;;;;;;3.11;48.12;95470.06;7017664;28;20248;-71
2021/01/10 13:04:43;;;;;;;10.30;9.20;;;;;;;3.18;48.51;95465.31;7002126;28;20216;-71
2021/01/10 13:08:04;;;;;;;10.53;9.13;;;;;;;3.29;48.41;95466.41;6998715;28;20207;-71
2021/01/10 13:11:29;;;;;;;12.20;9.10;;;;;;;3.42;48.49;95458.69;7012792;28;20328;-72
2021/01/10 13:14:49;;;;;;;10.13;8.67;;;;;;;3.46;48.18;95452.31;7019509;28;20328;-71
2021/01/10 13:18:09;;;;;;;9.53;8.63;;;;;;;3.52;48.54;95456.38;7025314;28;20579;-71
2021/01/10 13:21:33;;;;;;;10.10;8.30;;;;;;;3.45;48.30;95464.59;7014064;28;20223;-71
2021/01/10 13:24:56;;;;;;;11.00;7.83;;;;;;;3.44;48.16;95455.00;7020860;28;20297;-71
2021/01/10 13:28:16;;;;;;;8.93;8.03;;;;;;;3.47;48.06;95463.66;7013579;28;20206;-71
2021/01/10 13:31:38;;;;;;;10.73;8.97;;;;;;;3.43;48.16;95457.72;7027228;28;20239;-71
2021/01/10 13:34:58;;;;;;;9.43;7.90;;;;;;;3.39;48.57;95464.94;7029997;28;20226;-71
2021/01/10 13:38:18;;;;;;;9.60;8.43;;;;;;;3.41;47.77;95459.59;7000973;28;20358;-71
2021/01/10 13:41:39;;;;;;;8.77;7.70;;;;;;;3.36;48.41;95456.41;7023262;27;20991;-71
2021/01/10 13:44:59;;;;;;;9.10;8.20;;;;;;;3.38;48.77;95460.63;7023264;28;20223;-71
2021/01/10 13:48:20;;;;;;;9.40;7.70;;;;;;;3.44;48.56;95455.00;7027131;28;20286;-71
2021/01/10 13:51:40;;;;;;;12.03;8.20;;;;;;;3.47;48.41;95464.47;7023048;28;20727;-71
2021/01/10 13:55:10;;;;;;;9.87;8.33;;;;;;;3.50;48.43;95468.72;7032721;28;20219;-71
2021/01/10 13:58:30;;;;;;;9.77;8.53;;;;;;;3.45;48.62;95467.22;6993929;28;20729;-71
2021/01/10 14:01:51;;;;;;;9.20;8.03;;;;;;;3.35;47.75;95459.94;6995200;27;20213;-72
2021/01/10 14:05:13;;;;;;;9.23;8.00;;;;;;;3.28;48.46;95476.97;6993632;28;20243;-71
2021/01/10 14:08:34;;;;;;;8.87;7.97;;;;;;;3.27;48.81;95472.69;6986500;28;20223;-70
2021/01/10 14:11:56;;;;;;;8.93;7.93;;;;;;;3.27;48.61;95472.69;7003646;28;20593;-71
2021/01/10 14:15:16;;;;;;;8.47;7.47;;;;;;;3.25;48.66;95477.16;6973230;28;20737;-73
2021/01/10 14:18:37;;;;;;;8.73;7.13;;;;;;;3.26;48.75;95477.06;6986353;28;20220;-71
2021/01/10 14:21:57;;;;;;;8.60;7.70;;;;;;;3.27;49.06;95481.38;7011704;28;20355;-72
2021/01/10 14:25:18;;;;;;;8.43;7.47;;;;;;;3.25;49.32;95482.41;6989724;28;20248;-72
2021/01/10 14:28:40;;;;;;;8.27;7.30;;;;;;;3.26;48.62;95478.84;7008572;28;20652;-71
2021/01/10 14:32:01;;;;;;;8.03;7.23;;;;;;;3.16;48.59;95486.41;7002801;28;20227;-71
2021/01/10 14:35:21;;;;;;;8.00;7.20;;;;;;;3.14;49.09;95479.53;7005754;28;20229;-71
2021/01/10 14:38:42;;;;;;;7.97;6.83;;;;;;;3.13;49.42;95485.69;6990775;28;20303;-72
2021/01/10 14:42:02;;;;;;;8.43;7.40;;;;;;;3.07;48.99;95491.31;7008986;28;20636;-72
2021/01/10 14:45:23;;;;;;;7.97;7.17;;;;;;;3.06;49.17;95493.09;6995037;28;20243;-71
2021/01/10 14:48:46;;;;;;;11.57;7.63;;;;;;;3.07;49.67;95494.75;7008021;28;20212;-71
2021/01/10 14:52:09;;;;;;;7.73;6.90;;;;;;;3.06;48.80;95493.09;6985428;28;20228;-71
2021/01/10 14:55:29;;;;;;;8.47;7.57;;;;;;;3.05;49.22;95503.66;7006510;28;20251;-71
2021/01/10 14:58:50;;;;;;;7.67;6.50;;;;;;;3.02;49.59;95510.75;6977790;28;20219;-71
2021/01/10 15:02:10;;;;;;;9.43;8.10;;;;;;;3.01;49.70;95510.88;6998402;28;20217;-71
2021/01/10 15:05:30;;;;;;;9.37;7.50;;;;;;;2.96;49.52;95520.75;7004941;28;20354;-71
2021/01/10 15:08:52;;;;;;;8.23;7.30;;;;;;;2.92;49.29;95509.56;6959780;28;21014;-71
2021/01/10 15:12:12;;;;;;;7.73;6.93;;;;;;;2.90;49.91;95519.31;6998181;28;20225;-71
2021/01/10 15:15:32;;;;;;;8.13;6.93;;;;;;;2.85;49.64;95512.63;6975229;28;20804;-72
2021/01/10 15:18:54;;;;;;;8.10;7.07;;;;;;;2.85;50.44;95520.50;6995642;28;20304;-72
2021/01/10 15:22:14;;;;;;;7.93;7.13;;;;;;;2.85;50.92;95531.84;6999725;28;20207;-71
2021/01/10 15:25:37;;;;;;;9.60;7.33;;;;;;;2.86;50.97;95532.69;7004742;28;20229;-72
2021/01/10 15:28:59;;;;;;;7.90;6.80;;;;;;;2.83;51.17;95530.22;7009456;28;20220;-72
2021/01/10 15:32:19;;;;;;;8.30;7.43;;;;;;;2.76;51.48;95528.88;7013886;28;20216;-71
2021/01/10 15:35:46;;;;;;;8.67;7.73;;;;;;;2.66;51.43;95525.06;7031090;28;20241;-70
2021/01/10 15:39:07;;;;;;;7.67;6.90;;;;;;;2.55;52.66;95531.72;7003146;28;20802;-71
2021/01/10 15:42:27;;;;;;;9.43;8.40;;;;;;;2.51;52.84;95534.56;7033640;27;20208;-72
2021/01/10 15:45:53;;;;;;;10.17;8.43;;;;;;;2.42;52.73;95530.66;7008859;28;20708;-71
2021/01/10 15:49:16;;;;;;;8.13;7.33;;;;;;;2.33;52.08;95525.88;7016902;28;20341;-71
2021/01/10 15:52:36;;;;;;;8.90;7.30;;;;;;;2.25;51.37;95532.47;7002223;28;20220;-71
2021/01/10 15:55:57;;;;;;;6.87;6.13;;;;;;;2.19;51.32;95535.41;6971220;28;20211;-73
2021/01/10 15:59:17;;;;;;;10.23;5.77;;;;;;;2.14;49.94;95551.34;6994756;28;20247;-72